51.4°F
Current conditions from King Hill
Updated every 5 minutes
 
  Friday July 25, 2014

Station Historical Data
Daily Summary for June 6, 2011 Units:  English    Metric   Both
« Previous Day
Next Day »
Daily Weekly Monthly Yearly Custom
  High: Low: Average:
Temperature: 79.0 °F 46.5 °F 62.6 °F
Dew Point: 64.0 °F 45.1 °F 54.5 °F
Humidity: 97% 46% 77%
Wind Speed: 4.0mph 0.0mph 1.5mph
Wind Gust: 11.0mph - -
Wind- - SSW
Pressure: 30.03 in 29.92 in -
Precipitation: 0.00 in    
Historical Graphs
 
 
Tabular Data for June 6, 2011
Time Temperature Dew Point Pressure Wind Wind Speed Wind Gust Humidity Daily Rainfall
00:00 50.3 °F 48.6 °F 30.00 in Calm     94% 0.03 in
00:05 50.4 °F 49.0 °F 30.00 in Calm     95% 0.00 in
00:10 50.5 °F 49.1 °F 30.00 in Calm     95% 0.00 in
00:15 50.5 °F 49.1 °F 30.00 in Calm     95% 0.00 in
00:20 50.4 °F 49.0 °F 30.00 in Calm     95% 0.00 in
00:25 50.3 °F 48.9 °F 30.00 in Calm     95% 0.00 in
00:30 50.2 °F 48.8 °F 30.00 in Calm     95% 0.00 in
00:35 50.3 °F 48.9 °F 30.00 in Calm     95% 0.00 in
00:40 50.5 °F 49.1 °F 30.00 in Calm     95% 0.00 in
00:45 50.6 °F 49.2 °F 30.00 in Calm     95% 0.00 in
00:50 50.8 °F 49.4 °F 30.00 in Calm     95% 0.00 in
00:55 50.7 °F 49.3 °F 30.00 in Calm     95% 0.00 in
01:00 50.5 °F 49.1 °F 30.00 in Calm     95% 0.00 in
01:05 50.3 °F 48.9 °F 30.00 in Calm     95% 0.00 in
01:10 50.1 °F 48.7 °F 30.00 in Calm     95% 0.00 in
01:15 50.0 °F 48.6 °F 30.00 in Calm     95% 0.00 in
01:20 50.1 °F 48.7 °F 30.00 in Calm     95% 0.00 in
01:25 50.0 °F 48.6 °F 30.00 in Calm     95% 0.00 in
01:30 49.9 °F 48.5 °F 30.00 in Calm     95% 0.00 in
01:35 49.8 °F 48.4 °F 30.00 in Calm     95% 0.00 in
01:40 49.9 °F 48.5 °F 30.00 in Calm     95% 0.00 in
01:45 49.8 °F 48.4 °F 30.00 in Calm     95% 0.00 in
01:50 49.6 °F 48.2 °F 29.99 in Calm     95% 0.00 in
01:55 49.4 °F 48.0 °F 29.99 in Calm     95% 0.00 in
02:05 49.2 °F 47.8 °F 29.99 in Calm     95% 0.00 in
02:10 49.1 °F 47.7 °F 29.99 in Calm     95% 0.00 in
02:15 49.0 °F 47.6 °F 29.99 in Calm     95% 0.00 in
02:20 48.7 °F 47.3 °F 29.99 in Calm     95% 0.00 in
02:25 48.5 °F 47.1 °F 29.99 in Calm     95% 0.00 in
02:30 48.4 °F 47.0 °F 29.99 in Calm     95% 0.00 in
02:35 48.3 °F 46.9 °F 29.99 in Calm     95% 0.00 in
02:40 48.3 °F 46.9 °F 29.99 in Calm     95% 0.00 in
02:45 48.3 °F 46.9 °F 29.99 in Calm     95% 0.00 in
02:50 48.2 °F 46.8 °F 29.99 in Calm     95% 0.00 in
02:55 48.3 °F 46.9 °F 29.99 in Calm     95% 0.00 in
03:00 48.4 °F 47.0 °F 29.99 in Calm     95% 0.00 in
03:05 48.2 °F 46.8 °F 29.99 in Calm     95% 0.00 in
03:10 48.0 °F 46.6 °F 29.99 in Calm     95% 0.00 in
03:15 48.2 °F 46.8 °F 29.99 in Calm     95% 0.00 in
03:20 48.2 °F 46.8 °F 29.99 in Calm     95% 0.00 in
03:25 48.3 °F 46.9 °F 29.99 in Calm     95% 0.00 in
03:30 48.2 °F 46.8 °F 29.99 in Calm     95% 0.00 in
03:35 48.0 °F 46.6 °F 29.99 in Calm     95% 0.00 in
03:40 47.8 °F 46.4 °F 30.00 in Calm     95% 0.00 in
03:45 47.6 °F 46.2 °F 30.00 in Calm     95% 0.00 in
03:50 47.7 °F 46.3 °F 30.00 in Calm     95% 0.00 in
03:55 47.8 °F 46.4 °F 30.00 in Calm     95% 0.00 in
04:00 47.6 °F 46.2 °F 29.99 in Calm     95% 0.00 in
04:05 47.3 °F 45.9 °F 29.99 in Calm     95% 0.00 in
04:10 47.3 °F 45.9 °F 29.99 in Calm     95% 0.00 in
04:15 47.2 °F 45.8 °F 29.99 in Calm     95% 0.00 in
04:20 47.2 °F 45.8 °F 29.99 in Calm     95% 0.00 in
04:25 47.0 °F 45.6 °F 30.00 in Calm     95% 0.00 in
04:30 47.1 °F 45.7 °F 30.00 in Calm     95% 0.00 in
04:35 47.0 °F 45.6 °F 30.00 in Calm     95% 0.00 in
04:40 46.9 °F 45.5 °F 30.00 in Calm     95% 0.00 in
04:45 46.9 °F 45.5 °F 30.00 in Calm     95% 0.00 in
04:50 46.7 °F 45.3 °F 30.00 in Calm     95% 0.00 in
04:55 46.5 °F 45.1 °F 30.00 in Calm     95% 0.00 in
05:05 46.6 °F 45.2 °F 30.00 in Calm     95% 0.00 in
05:10 46.6 °F 45.5 °F 30.00 in Calm     96% 0.00 in
05:15 46.8 °F 45.7 °F 30.00 in Calm     96% 0.00 in
05:20 46.7 °F 45.6 °F 30.00 in Calm     96% 0.00 in
05:25 46.7 °F 45.6 °F 30.00 in Calm     96% 0.00 in
05:30 46.7 °F 45.6 °F 30.00 in Calm     96% 0.00 in
05:40 46.9 °F 45.8 °F 30.00 in Calm     96% 0.00 in
05:45 46.9 °F 45.8 °F 30.00 in Calm     96% 0.00 in
05:50 46.9 °F 45.8 °F 30.00 in Calm     96% 0.00 in
05:55 46.9 °F 45.8 °F 30.00 in Calm     96% 0.00 in
06:05 47.5 °F 46.4 °F 30.00 in Calm     96% 0.00 in
06:10 47.8 °F 46.7 °F 30.01 in Calm     96% 0.00 in
06:15 48.0 °F 46.9 °F 30.01 in Calm     96% 0.00 in
06:20 48.2 °F 47.1 °F 30.01 in Calm     96% 0.00 in
06:25 48.6 °F 47.5 °F 30.01 in Calm     96% 0.00 in
06:30 49.0 °F 47.9 °F 30.01 in Calm     96% 0.00 in
06:40 49.6 °F 48.5 °F 30.02 in Calm     96% 0.00 in
06:45 49.9 °F 48.8 °F 30.02 in Calm     96% 0.00 in
06:50 50.2 °F 49.1 °F 30.02 in Calm     96% 0.00 in
07:00 50.8 °F 49.7 °F 30.02 in Calm     96% 0.00 in
07:05 51.3 °F 50.2 °F 30.02 in Calm     96% 0.00 in
07:10 52.0 °F 50.9 °F 30.02 in Calm     96% 0.00 in
07:15 52.7 °F 51.6 °F 30.02 in Calm     96% 0.00 in
07:20 53.1 °F 52.0 °F 30.02 in Calm     96% 0.00 in
07:25 53.7 °F 52.6 °F 30.02 in Calm     96% 0.00 in
07:30 54.4 °F 53.6 °F 30.02 in Calm     97% 0.00 in
07:35 54.7 °F 53.6 °F 30.02 in Calm     96% 0.00 in
07:40 54.7 °F 53.6 °F 30.02 in Calm     96% 0.00 in
07:45 54.9 °F 53.8 °F 30.02 in Calm   1.0 mph 96% 0.00 in
07:50 55.4 °F 54.3 °F 30.02 in Calm   1.0 mph 96% 0.00 in
07:55 56.1 °F 55.0 °F 30.02 in Calm     96% 0.00 in
08:00 56.7 °F 55.6 °F 30.02 in Calm     96% 0.00 in
08:05 57.1 °F 56.3 °F 30.03 in Calm     97% 0.00 in
08:10 57.9 °F 57.1 °F 30.03 in Calm     97% 0.00 in
08:15 58.8 °F 58.0 °F 30.03 in Calm     97% 0.00 in
08:20 59.4 °F 58.5 °F 30.03 in Calm     97% 0.00 in
08:25 60.1 °F 59.2 °F 30.03 in Calm     97% 0.00 in
08:30 60.4 °F 59.5 °F 30.03 in Calm     97% 0.00 in
08:35 61.0 °F 60.1 °F 30.03 in Calm     97% 0.00 in
08:40 61.4 °F 60.2 °F 30.03 in Calm   3.0 mph 96% 0.00 in
08:45 62.1 °F 60.9 °F 30.03 in Calm   3.0 mph 96% 0.00 in
08:50 62.6 °F 60.8 °F 30.03 in Calm   3.0 mph 94% 0.00 in
08:55 63.1 °F 60.7 °F 30.03 in Calm   3.0 mph 92% 0.00 in
09:00 63.6 °F 60.9 °F 30.03 in Calm   1.0 mph 91% 0.00 in
09:05 64.1 °F 60.5 °F 30.03 in North 1.0 mph 3.0 mph 88% 0.00 in
09:10 64.7 °F 60.4 °F 30.03 in Calm   3.0 mph 86% 0.00 in
09:15 65.0 °F 59.4 °F 30.03 in Calm   2.0 mph 82% 0.00 in
09:20 65.9 °F 60.3 °F 30.03 in Calm   2.0 mph 82% 0.00 in
09:25 66.2 °F 59.5 °F 30.03 in Calm   1.0 mph 79% 0.00 in
09:30 66.8 °F 60.1 °F 30.03 in Calm   1.0 mph 79% 0.00 in
09:35 67.7 °F 60.2 °F 30.02 in Calm   1.0 mph 77% 0.00 in
09:40 68.4 °F 61.3 °F 30.02 in Calm   1.0 mph 78% 0.00 in
09:45 69.2 °F 61.7 °F 30.02 in Calm   1.0 mph 77% 0.00 in
09:50 69.7 °F 61.1 °F 30.03 in Calm   1.0 mph 74% 0.00 in
09:55 70.2 °F 60.4 °F 30.02 in Calm   1.0 mph 71% 0.00 in
10:05 70.4 °F 59.3 °F 30.02 in Calm   4.0 mph 68% 0.00 in
10:10 69.9 °F 58.0 °F 30.02 in NNE 1.0 mph 4.0 mph 66% 0.00 in
10:20 69.3 °F 59.9 °F 30.02 in WNW 2.0 mph 5.0 mph 72% 0.00 in
10:25 69.5 °F 57.2 °F 30.02 in Calm   5.0 mph 65% 0.00 in
10:30 69.9 °F 55.9 °F 30.02 in ESE 2.0 mph 4.0 mph 61% 0.00 in
10:35 70.4 °F 58.9 °F 30.02 in SE 1.0 mph 4.0 mph 67% 0.00 in
10:40 70.6 °F 57.0 °F 30.02 in Calm   4.0 mph 62% 0.00 in
10:45 71.1 °F 56.5 °F 30.02 in NNE 2.0 mph 4.0 mph 60% 0.00 in
10:55 72.0 °F 56.4 °F 30.02 in North 1.0 mph 3.0 mph 58% 0.00 in
11:00 71.9 °F 54.9 °F 30.02 in NE 2.0 mph 4.0 mph 55% 0.00 in
11:05 71.8 °F 55.3 °F 30.02 in ENE 1.0 mph 6.0 mph 56% 0.00 in
11:10 71.8 °F 57.2 °F 30.02 in Calm   6.0 mph 60% 0.00 in
11:15 71.5 °F 56.0 °F 30.02 in SE 3.0 mph 6.0 mph 58% 0.00 in
11:20 71.5 °F 56.9 °F 30.02 in Calm   6.0 mph 60% 0.00 in
11:25 71.7 °F 55.7 °F 30.01 in Calm   2.0 mph 57% 0.00 in
11:30 71.9 °F 56.8 °F 30.01 in SE 3.0 mph 5.0 mph 59% 0.00 in
11:35 72.3 °F 58.6 °F 30.01 in Calm   5.0 mph 62% 0.00 in
11:40 72.6 °F 57.0 °F 30.01 in Calm   3.0 mph 58% 0.00 in
11:45 73.1 °F 59.8 °F 30.01 in Calm   7.0 mph 63% 0.00 in
11:50 73.5 °F 62.7 °F 30.01 in Calm   7.0 mph 69% 0.00 in
11:55 73.5 °F 56.9 °F 30.01 in NE 2.0 mph 7.0 mph 56% 0.00 in
12:00 73.3 °F 57.6 °F 30.01 in SE 1.0 mph 7.0 mph 58% 0.00 in
12:05 73.1 °F 57.5 °F 30.01 in ENE 2.0 mph 5.0 mph 58% 0.00 in
12:10 72.9 °F 59.1 °F 30.01 in ESE 1.0 mph 6.0 mph 62% 0.00 in
12:15 73.1 °F 58.9 °F 30.01 in WSW 1.0 mph 6.0 mph 61% 0.00 in
12:20 73.5 °F 58.8 °F 30.00 in East 2.0 mph 7.0 mph 60% 0.00 in
12:25 73.5 °F 58.3 °F 30.00 in ESE 2.0 mph 7.0 mph 59% 0.00 in
12:30 73.4 °F 57.7 °F 30.00 in SSE 1.0 mph 5.0 mph 58% 0.00 in
12:35 73.5 °F 57.4 °F 30.00 in Calm   5.0 mph 57% 0.00 in
12:40 74.1 °F 59.3 °F 30.00 in Calm   4.0 mph 60% 0.00 in
12:45 74.6 °F 57.4 °F 30.00 in Calm   2.0 mph 55% 0.00 in
12:50 74.6 °F 59.3 °F 30.00 in Calm   6.0 mph 59% 0.00 in
12:55 74.7 °F 58.5 °F 30.00 in East 1.0 mph 7.0 mph 57% 0.00 in
13:00 75.1 °F 59.3 °F 29.99 in SE 1.0 mph 7.0 mph 58% 0.00 in
13:05 74.9 °F 57.2 °F 29.99 in East 1.0 mph 5.0 mph 54% 0.00 in
13:10 74.8 °F 59.5 °F 29.99 in Calm   5.0 mph 59% 0.00 in
13:15 75.5 °F 60.7 °F 29.99 in Calm   5.0 mph 60% 0.00 in
13:20 75.9 °F 59.6 °F 29.99 in WNW 3.0 mph 8.0 mph 57% 0.00 in
13:25 75.8 °F 59.5 °F 29.98 in Calm   8.0 mph 57% 0.00 in
13:30 75.7 °F 59.4 °F 29.98 in NE 1.0 mph 5.0 mph 57% 0.00 in
13:35 75.4 °F 60.1 °F 29.98 in Calm   5.0 mph 59% 0.00 in
13:40 75.9 °F 58.1 °F 29.98 in North 1.0 mph 6.0 mph 54% 0.00 in
13:45 75.7 °F 59.9 °F 29.98 in NW 1.0 mph 6.0 mph 58% 0.00 in
13:50 76.1 °F 59.3 °F 29.98 in NW 1.0 mph 5.0 mph 56% 0.00 in
13:55 76.2 °F 58.9 °F 29.98 in Calm   5.0 mph 55% 0.00 in
14:05 76.7 °F 58.8 °F 29.97 in WNW 1.0 mph 3.0 mph 54% 0.00 in
14:10 77.1 °F 64.0 °F 29.97 in Calm   3.0 mph 64% 0.00 in
14:20 77.5 °F 61.1 °F 29.97 in Calm   6.0 mph 57% 0.00 in
14:30 76.5 °F 59.7 °F 29.97 in Calm   1.0 mph 56% 0.00 in
14:35 76.3 °F 60.0 °F 29.97 in WNW 1.0 mph 5.0 mph 57% 0.00 in
14:40 76.3 °F 58.5 °F 29.97 in Calm   5.0 mph 54% 0.00 in
14:45 76.0 °F 60.2 °F 29.97 in Calm   3.0 mph 58% 0.00 in
14:50 76.1 °F 60.8 °F 29.97 in North 1.0 mph 4.0 mph 59% 0.00 in
14:55 76.9 °F 60.5 °F 29.96 in Calm   4.0 mph 57% 0.00 in
15:00 77.8 °F 63.3 °F 29.96 in Calm   4.0 mph 61% 0.00 in
15:05 78.4 °F 59.9 °F 29.96 in Calm   4.0 mph 53% 0.00 in
15:10 78.8 °F 60.8 °F 29.96 in Calm   4.0 mph 54% 0.00 in
15:15 78.2 °F 60.2 °F 29.95 in Calm   4.0 mph 54% 0.00 in
15:20 78.0 °F 63.5 °F 29.95 in Calm   4.0 mph 61% 0.00 in
15:25 78.1 °F 60.6 °F 29.95 in Calm   3.0 mph 55% 0.00 in
15:30 78.3 °F 58.7 °F 29.95 in WNW 1.0 mph 4.0 mph 51% 0.00 in
15:35 78.5 °F 59.4 °F 29.95 in Calm   4.0 mph 52% 0.00 in
15:40 77.8 °F 59.3 °F 29.95 in Calm   1.0 mph 53% 0.00 in
15:45 76.8 °F 58.4 °F 29.95 in Calm   1.0 mph 53% 0.00 in
15:50 76.5 °F 63.0 °F 29.95 in Calm   1.0 mph 63% 0.00 in
15:55 77.0 °F 62.5 °F 29.95 in NNW 1.0 mph 4.0 mph 61% 0.00 in
16:00 77.8 °F 59.8 °F 29.95 in Calm   4.0 mph 54% 0.00 in
16:05 78.5 °F 61.5 °F 29.95 in Calm   4.0 mph 56% 0.00 in
16:10 78.5 °F 59.4 °F 29.94 in NE 3.0 mph 11.0 mph 52% 0.00 in
16:15 78.0 °F 60.5 °F 29.95 in Calm   11.0 mph 55% 0.00 in
16:20 78.2 °F 60.7 °F 29.94 in Calm   9.0 mph 55% 0.00 in
16:25 78.8 °F 63.8 °F 29.94 in Calm   7.0 mph 60% 0.00 in
16:30 79.0 °F 61.5 °F 29.94 in North 1.0 mph 7.0 mph 55% 0.00 in
16:35 78.9 °F 63.9 °F 29.94 in NW 3.0 mph 9.0 mph 60% 0.00 in
16:40 78.9 °F 62.9 °F 29.94 in Calm   9.0 mph 58% 0.00 in
16:45 78.9 °F 59.8 °F 29.94 in WNW 1.0 mph 5.0 mph 52% 0.00 in
16:50 78.7 °F 61.2 °F 29.94 in Calm   5.0 mph 55% 0.00 in
16:55 78.6 °F 60.1 °F 29.94 in NW 4.0 mph 8.0 mph 53% 0.00 in
17:00 78.4 °F 61.4 °F 29.94 in WNW 1.0 mph 8.0 mph 56% 0.00 in
17:05 78.4 °F 60.9 °F 29.94 in NW 3.0 mph 6.0 mph 55% 0.00 in
17:15 78.4 °F 58.2 °F 29.93 in NW 1.0 mph 5.0 mph 50% 0.00 in
17:20 78.2 °F 60.2 °F 29.93 in Calm   7.0 mph 54% 0.00 in
17:25 77.9 °F 57.8 °F 29.93 in WNW 1.0 mph 7.0 mph 50% 0.00 in
17:30 78.0 °F 57.9 °F 29.93 in Calm   6.0 mph 50% 0.00 in
17:35 78.3 °F 57.0 °F 29.93 in Calm   4.0 mph 48% 0.00 in
17:40 78.4 °F 57.1 °F 29.93 in Calm   4.0 mph 48% 0.00 in
17:45 78.4 °F 58.2 °F 29.92 in Calm   4.0 mph 50% 0.00 in
17:50 78.1 °F 55.7 °F 29.92 in NW 1.0 mph 4.0 mph 46% 0.00 in
17:55 78.1 °F 56.8 °F 29.92 in WNW 2.0 mph 5.0 mph 48% 0.00 in
18:00 78.1 °F 59.1 °F 29.92 in Calm   5.0 mph 52% 0.00 in
18:05 78.1 °F 56.3 °F 29.92 in Calm   4.0 mph 47% 0.00 in
18:10 77.8 °F 57.1 °F 29.92 in WNW 1.0 mph 5.0 mph 49% 0.00 in
18:15 77.6 °F 57.5 °F 29.92 in NNW 1.0 mph 5.0 mph 50% 0.00 in
18:20 77.0 °F 59.1 °F 29.92 in Calm   4.0 mph 54% 0.00 in
18:25 76.5 °F 58.1 °F 29.92 in Calm   2.0 mph 53% 0.00 in
18:30 75.6 °F 57.8 °F 29.92 in Calm   1.0 mph 54% 0.00 in
18:40 74.2 °F 59.9 °F 29.92 in Calm     61% 0.00 in
18:45 73.5 °F 59.7 °F 29.92 in Calm     62% 0.00 in
18:50 72.5 °F 58.8 °F 29.92 in Calm     62% 0.00 in
18:55 71.6 °F 59.2 °F 29.92 in Calm     65% 0.00 in
19:00 70.8 °F 57.6 °F 29.92 in Calm     63% 0.00 in
19:05 70.5 °F 59.4 °F 29.92 in Calm     68% 0.00 in
19:15 70.7 °F 60.8 °F 29.92 in Calm     71% 0.00 in
19:25 71.2 °F 58.8 °F 29.92 in Calm     65% 0.00 in
19:30 71.0 °F 59.1 °F 29.92 in Calm     66% 0.00 in
19:35 70.6 °F 59.1 °F 29.92 in Calm   1.0 mph 67% 0.00 in
19:40 70.0 °F 59.4 °F 29.92 in Calm   1.0 mph 69% 0.00 in
19:45 69.6 °F 59.0 °F 29.92 in Calm     69% 0.00 in
19:50 69.2 °F 59.8 °F 29.92 in Calm     72% 0.00 in
19:55 68.6 °F 59.2 °F 29.92 in Calm     72% 0.00 in
20:00 67.9 °F 58.2 °F 29.92 in Calm     71% 0.00 in
20:05 67.0 °F 57.7 °F 29.92 in Calm     72% 0.00 in
20:10 66.2 °F 58.1 °F 29.92 in Calm     75% 0.00 in
20:15 65.5 °F 57.4 °F 29.92 in Calm     75% 0.00 in
20:20 64.6 °F 57.2 °F 29.92 in Calm     77% 0.00 in
20:25 63.6 °F 56.3 °F 29.93 in Calm     77% 0.00 in
20:30 62.7 °F 55.7 °F 29.92 in Calm     78% 0.00 in
20:35 61.8 °F 55.2 °F 29.92 in Calm     79% 0.00 in
20:40 61.0 °F 55.1 °F 29.92 in Calm     81% 0.00 in
20:45 60.4 °F 54.5 °F 29.92 in Calm     81% 0.00 in
20:50 59.9 °F 54.4 °F 29.92 in Calm     82% 0.00 in
20:55 59.3 °F 53.8 °F 29.92 in Calm     82% 0.00 in
21:00 59.0 °F 53.5 °F 29.92 in Calm     82% 0.00 in
21:05 58.7 °F 53.2 °F 29.92 in Calm     82% 0.00 in
21:10 58.4 °F 52.9 °F 29.92 in Calm     82% 0.00 in
21:15 58.2 °F 52.7 °F 29.93 in Calm     82% 0.00 in
21:20 58.0 °F 52.9 °F 29.93 in Calm     83% 0.00 in
21:30 57.5 °F 52.4 °F 29.93 in Calm     83% 0.00 in
21:40 57.3 °F 52.5 °F 29.92 in Calm     84% 0.00 in
21:45 57.3 °F 52.5 °F 29.93 in Calm     84% 0.00 in
21:50 57.3 °F 52.8 °F 29.93 in Calm     85% 0.00 in
21:55 57.3 °F 52.8 °F 29.93 in Calm     85% 0.00 in
22:00 57.2 °F 52.7 °F 29.93 in Calm     85% 0.00 in
22:05 57.1 °F 53.0 °F 29.93 in Calm     86% 0.00 in
22:10 57.0 °F 53.2 °F 29.93 in Calm     87% 0.00 in
22:15 57.1 °F 53.3 °F 29.92 in Calm     87% 0.00 in
22:20 57.3 °F 53.2 °F 29.93 in Calm     86% 0.00 in
22:25 57.2 °F 53.1 °F 29.92 in Calm     86% 0.00 in
22:30 57.1 °F 53.0 °F 29.92 in Calm     86% 0.00 in
22:40 56.6 °F 52.5 °F 29.93 in Calm     86% 0.00 in
22:45 56.4 °F 52.6 °F 29.93 in Calm     87% 0.00 in
22:50 56.2 °F 52.4 °F 29.93 in Calm     87% 0.00 in
22:55 56.0 °F 52.2 °F 29.93 in Calm     87% 0.00 in
23:00 55.8 °F 52.0 °F 29.93 in Calm     87% 0.00 in
23:05 55.9 °F 52.1 °F 29.93 in Calm     87% 0.00 in
23:10 55.8 °F 52.0 °F 29.93 in Calm     87% 0.00 in
23:15 55.8 °F 52.3 °F 29.92 in Calm     88% 0.00 in
23:20 55.8 °F 52.3 °F 29.92 in Calm     88% 0.00 in
23:25 55.9 °F 52.4 °F 29.92 in Calm     88% 0.00 in
23:30 55.9 °F 52.4 °F 29.92 in Calm     88% 0.00 in
23:35 55.8 °F 52.3 °F 29.92 in Calm     88% 0.00 in
23:45 55.4 °F 51.9 °F 29.92 in Calm     88% 0.00 in
23:50 55.3 °F 51.8 °F 29.92 in Calm     88% 0.00 in
23:55 55.4 °F 52.2 °F 29.92 in Calm     89% 0.00 in
Westford Weather
Compliments of Weather Underground

 
 
Current Radar Loop:

Copyright © WestfordWeather.net 2007-2014. All rights reserved.